sensor_id;sensor_type;location;lat;lon;timestamp;P1;durP1;ratioP1;P2;durP2;ratioP2
17997;SDS011;9124;48.144;17.098;2023-03-30T00:00:05;7.82;;;7.05;;
17997;SDS011;9124;48.144;17.098;2023-03-30T00:03:53;8.93;;;7.53;;
17997;SDS011;9124;48.144;17.098;2023-03-30T00:07:29;7.93;;;7.13;;
17997;SDS011;9124;48.144;17.098;2023-03-30T00:11:07;10.40;;;7.78;;
17997;SDS011;9124;48.144;17.098;2023-03-30T00:14:46;9.15;;;8.25;;
17997;SDS011;9124;48.144;17.098;2023-03-30T00:18:23;10.00;;;7.53;;
17997;SDS011;9124;48.144;17.098;2023-03-30T00:22:01;8.52;;;7.78;;
17997;SDS011;9124;48.144;17.098;2023-03-30T00:25:38;8.70;;;7.85;;
17997;SDS011;9124;48.144;17.098;2023-03-30T00:29:14;9.85;;;8.00;;
17997;SDS011;9124;48.144;17.098;2023-03-30T00:32:51;9.05;;;8.15;;
17997;SDS011;9124;48.144;17.098;2023-03-30T00:36:28;10.48;;;8.95;;
17997;SDS011;9124;48.144;17.098;2023-03-30T00:40:06;8.70;;;7.82;;
17997;SDS011;9124;48.144;17.098;2023-03-30T00:43:54;11.00;;;8.13;;
17997;SDS011;9124;48.144;17.098;2023-03-30T00:47:43;10.40;;;8.75;;
17997;SDS011;9124;48.144;17.098;2023-03-30T00:51:33;9.18;;;8.27;;
17997;SDS011;9124;48.144;17.098;2023-03-30T00:55:12;9.80;;;7.80;;
17997;SDS011;9124;48.144;17.098;2023-03-30T00:58:49;8.15;;;6.97;;
17997;SDS011;9124;48.144;17.098;2023-03-30T01:02:26;8.05;;;7.25;;
17997;SDS011;9124;48.144;17.098;2023-03-30T01:06:06;8.18;;;7.38;;
17997;SDS011;9124;48.144;17.098;2023-03-30T01:09:42;8.50;;;7.38;;
17997;SDS011;9124;48.144;17.098;2023-03-30T01:13:20;8.30;;;7.53;;
17997;SDS011;9124;48.144;17.098;2023-03-30T01:17:03;8.18;;;7.47;;
17997;SDS011;9124;48.144;17.098;2023-03-30T01:39:24;8.32;;;6.72;;
17997;SDS011;9124;48.144;17.098;2023-03-30T01:46:57;8.60;;;6.75;;
17997;SDS011;9124;48.144;17.098;2023-03-30T01:55:03;10.15;;;6.72;;
17997;SDS011;9124;48.144;17.098;2023-03-30T02:03:03;7.68;;;6.80;;
17997;SDS011;9124;48.144;17.098;2023-03-30T02:07:04;10.63;;;6.90;;
17997;SDS011;9124;48.144;17.098;2023-03-30T02:10:46;14.02;;;7.63;;
17997;SDS011;9124;48.144;17.098;2023-03-30T02:14:28;7.45;;;6.85;;
17997;SDS011;9124;48.144;17.098;2023-03-30T02:18:08;10.27;;;7.15;;
17997;SDS011;9124;48.144;17.098;2023-03-30T02:21:45;9.43;;;7.95;;
17997;SDS011;9124;48.144;17.098;2023-03-30T02:25:22;10.02;;;7.40;;
17997;SDS011;9124;48.144;17.098;2023-03-30T02:28:59;7.68;;;7.05;;
17997;SDS011;9124;48.144;17.098;2023-03-30T02:32:41;9.88;;;7.78;;
17997;SDS011;9124;48.144;17.098;2023-03-30T03:00:40;9.48;;;7.25;;
17997;SDS011;9124;48.144;17.098;2023-03-30T03:04:32;7.55;;;6.78;;
17997;SDS011;9124;48.144;17.098;2023-03-30T03:08:48;7.60;;;6.82;;
17997;SDS011;9124;48.144;17.098;2023-03-30T03:12:31;7.68;;;6.97;;
17997;SDS011;9124;48.144;17.098;2023-03-30T03:16:09;9.38;;;7.13;;
17997;SDS011;9124;48.144;17.098;2023-03-30T03:19:50;8.88;;;6.47;;
17997;SDS011;9124;48.144;17.098;2023-03-30T03:23:28;6.75;;;6.05;;
17997;SDS011;9124;48.144;17.098;2023-03-30T03:27:06;9.05;;;6.70;;
17997;SDS011;9124;48.144;17.098;2023-03-30T03:31:00;6.47;;;5.88;;
17997;SDS011;9124;48.144;17.098;2023-03-30T03:34:37;7.57;;;6.72;;
17997;SDS011;9124;48.144;17.098;2023-03-30T03:38:14;6.55;;;5.95;;
17997;SDS011;9124;48.144;17.098;2023-03-30T03:41:51;8.13;;;6.50;;
17997;SDS011;9124;48.144;17.098;2023-03-30T03:45:27;9.13;;;6.28;;
17997;SDS011;9124;48.144;17.098;2023-03-30T03:49:09;6.35;;;5.38;;
17997;SDS011;9124;48.144;17.098;2023-03-30T03:52:45;7.15;;;6.50;;
17997;SDS011;9124;48.144;17.098;2023-03-30T03:56:22;6.60;;;6.00;;
17997;SDS011;9124;48.144;17.098;2023-03-30T03:59:59;7.45;;;6.82;;
17997;SDS011;9124;48.144;17.098;2023-03-30T04:03:36;6.88;;;6.13;;
17997;SDS011;9124;48.144;17.098;2023-03-30T04:07:12;8.38;;;5.85;;
17997;SDS011;9124;48.144;17.098;2023-03-30T04:10:49;7.10;;;6.43;;
17997;SDS011;9124;48.144;17.098;2023-03-30T04:14:49;10.20;;;6.53;;
17997;SDS011;9124;48.144;17.098;2023-03-30T04:18:44;7.13;;;6.43;;
17997;SDS011;9124;48.144;17.098;2023-03-30T04:22:21;7.15;;;5.95;;
17997;SDS011;9124;48.144;17.098;2023-03-30T04:26:12;7.70;;;6.05;;
17997;SDS011;9124;48.144;17.098;2023-03-30T04:30:13;6.50;;;6.00;;
17997;SDS011;9124;48.144;17.098;2023-03-30T04:34:08;6.55;;;5.43;;
17997;SDS011;9124;48.144;17.098;2023-03-30T04:38:01;5.90;;;5.38;;
17997;SDS011;9124;48.144;17.098;2023-03-30T04:42:00;6.22;;;5.63;;
17997;SDS011;9124;48.144;17.098;2023-03-30T04:46:07;5.78;;;5.28;;
17997;SDS011;9124;48.144;17.098;2023-03-30T04:49:43;7.03;;;5.35;;
17997;SDS011;9124;48.144;17.098;2023-03-30T04:53:40;10.90;;;5.95;;
17997;SDS011;9124;48.144;17.098;2023-03-30T04:57:35;11.43;;;5.38;;
17997;SDS011;9124;48.144;17.098;2023-03-30T05:01:41;5.50;;;5.05;;
17997;SDS011;9124;48.144;17.098;2023-03-30T05:05:36;10.38;;;5.75;;
17997;SDS011;9124;48.144;17.098;2023-03-30T05:09:39;9.75;;;5.45;;
17997;SDS011;9124;48.144;17.098;2023-03-30T05:13:51;7.40;;;5.90;;
17997;SDS011;9124;48.144;17.098;2023-03-30T05:17:53;12.25;;;6.03;;
17997;SDS011;9124;48.144;17.098;2023-03-30T05:21:52;10.32;;;5.75;;
17997;SDS011;9124;48.144;17.098;2023-03-30T05:25:49;6.97;;;5.43;;
17997;SDS011;9124;48.144;17.098;2023-03-30T05:30:01;10.75;;;5.35;;
17997;SDS011;9124;48.144;17.098;2023-03-30T05:33:57;6.30;;;5.70;;
17997;SDS011;9124;48.144;17.098;2023-03-30T05:37:49;6.20;;;5.70;;
17997;SDS011;9124;48.144;17.098;2023-03-30T05:41:35;8.05;;;6.00;;
17997;SDS011;9124;48.144;17.098;2023-03-30T05:45:29;6.43;;;5.53;;
17997;SDS011;9124;48.144;17.098;2023-03-30T05:49:17;8.32;;;5.63;;
17997;SDS011;9124;48.144;17.098;2023-03-30T05:53:12;10.18;;;6.18;;
17997;SDS011;9124;48.144;17.098;2023-03-30T05:57:07;12.10;;;5.80;;
17997;SDS011;9124;48.144;17.098;2023-03-30T06:00:50;7.82;;;6.00;;
17997;SDS011;9124;48.144;17.098;2023-03-30T06:04:39;6.97;;;6.05;;
17997;SDS011;9124;48.144;17.098;2023-03-30T06:08:15;7.72;;;5.28;;
17997;SDS011;9124;48.144;17.098;2023-03-30T06:11:52;11.57;;;6.10;;
17997;SDS011;9124;48.144;17.098;2023-03-30T06:15:32;7.68;;;5.80;;
17997;SDS011;9124;48.144;17.098;2023-03-30T06:19:21;6.63;;;6.03;;
17997;SDS011;9124;48.144;17.098;2023-03-30T06:22:58;6.72;;;5.70;;
17997;SDS011;9124;48.144;17.098;2023-03-30T06:26:35;6.90;;;6.18;;
17997;SDS011;9124;48.144;17.098;2023-03-30T06:30:12;8.88;;;6.22;;
17997;SDS011;9124;48.144;17.098;2023-03-30T06:33:53;6.85;;;6.25;;
17997;SDS011;9124;48.144;17.098;2023-03-30T06:37:30;8.57;;;5.70;;
17997;SDS011;9124;48.144;17.098;2023-03-30T06:41:07;13.15;;;6.13;;
17997;SDS011;9124;48.144;17.098;2023-03-30T06:44:49;6.53;;;5.70;;
17997;SDS011;9124;48.144;17.098;2023-03-30T06:48:28;7.07;;;6.40;;
17997;SDS011;9124;48.144;17.098;2023-03-30T06:52:28;7.00;;;5.80;;
17997;SDS011;9124;48.144;17.098;2023-03-30T06:56:06;6.38;;;5.85;;
17997;SDS011;9124;48.144;17.098;2023-03-30T06:59:48;11.27;;;6.45;;
17997;SDS011;9124;48.144;17.098;2023-03-30T07:03:29;9.38;;;5.90;;
17997;SDS011;9124;48.144;17.098;2023-03-30T07:07:28;6.53;;;5.93;;
17997;SDS011;9124;48.144;17.098;2023-03-30T07:11:05;6.38;;;5.82;;
17997;SDS011;9124;48.144;17.098;2023-03-30T07:14:44;7.20;;;6.35;;
17997;SDS011;9124;48.144;17.098;2023-03-30T07:18:21;6.95;;;6.32;;
17997;SDS011;9124;48.144;17.098;2023-03-30T07:21:58;7.57;;;6.13;;
17997;SDS011;9124;48.144;17.098;2023-03-30T07:25:37;6.72;;;6.05;;
17997;SDS011;9124;48.144;17.098;2023-03-30T07:29:22;7.63;;;6.93;;
17997;SDS011;9124;48.144;17.098;2023-03-30T07:33:04;7.40;;;6.53;;
17997;SDS011;9124;48.144;17.098;2023-03-30T07:36:41;8.93;;;6.35;;
17997;SDS011;9124;48.144;17.098;2023-03-30T07:40:18;11.70;;;6.78;;
17997;SDS011;9124;48.144;17.098;2023-03-30T07:43:55;6.30;;;5.80;;
17997;SDS011;9124;48.144;17.098;2023-03-30T07:47:32;7.60;;;6.90;;
17997;SDS011;9124;48.144;17.098;2023-03-30T07:51:09;10.32;;;6.70;;
17997;SDS011;9124;48.144;17.098;2023-03-30T07:54:57;8.10;;;7.38;;
17997;SDS011;9124;48.144;17.098;2023-03-30T07:58:41;11.63;;;7.10;;
17997;SDS011;9124;48.144;17.098;2023-03-30T08:02:18;11.65;;;6.88;;
17997;SDS011;9124;48.144;17.098;2023-03-30T08:06:00;6.70;;;5.95;;
17997;SDS011;9124;48.144;17.098;2023-03-30T08:10:04;5.70;;;5.28;;
17997;SDS011;9124;48.144;17.098;2023-03-30T08:13:42;7.03;;;6.30;;
17997;SDS011;9124;48.144;17.098;2023-03-30T08:17:19;7.28;;;6.57;;
17997;SDS011;9124;48.144;17.098;2023-03-30T08:20:56;7.57;;;6.88;;
17997;SDS011;9124;48.144;17.098;2023-03-30T08:24:32;8.82;;;6.78;;
17997;SDS011;9124;48.144;17.098;2023-03-30T08:28:08;9.38;;;7.68;;
17997;SDS011;9124;48.144;17.098;2023-03-30T08:31:45;8.18;;;6.55;;
17997;SDS011;9124;48.144;17.098;2023-03-30T08:35:22;6.95;;;6.43;;
17997;SDS011;9124;48.144;17.098;2023-03-30T08:38:59;9.50;;;7.00;;
17997;SDS011;9124;48.144;17.098;2023-03-30T08:42:54;8.98;;;7.60;;
17997;SDS011;9124;48.144;17.098;2023-03-30T08:46:53;8.02;;;7.30;;
17997;SDS011;9124;48.144;17.098;2023-03-30T08:50:31;9.32;;;7.38;;
17997;SDS011;9124;48.144;17.098;2023-03-30T08:54:10;11.90;;;8.10;;
17997;SDS011;9124;48.144;17.098;2023-03-30T08:57:54;12.10;;;7.50;;
17997;SDS011;9124;48.144;17.098;2023-03-30T09:01:54;7.80;;;7.10;;
17997;SDS011;9124;48.144;17.098;2023-03-30T09:05:41;7.93;;;7.32;;
17997;SDS011;9124;48.144;17.098;2023-03-30T09:09:29;9.77;;;7.57;;
17997;SDS011;9124;48.144;17.098;2023-03-30T09:13:16;7.90;;;7.15;;
17997;SDS011;9124;48.144;17.098;2023-03-30T09:17:10;7.88;;;6.55;;
17997;SDS011;9124;48.144;17.098;2023-03-30T09:20:58;6.50;;;6.07;;
17997;SDS011;9124;48.144;17.098;2023-03-30T09:24:37;7.32;;;6.63;;
17997;SDS011;9124;48.144;17.098;2023-03-30T09:32:31;7.57;;;6.95;;
17997;SDS011;9124;48.144;17.098;2023-03-30T09:39:52;7.63;;;7.03;;
17997;SDS011;9124;48.144;17.098;2023-03-30T09:43:37;7.95;;;7.07;;
17997;SDS011;9124;48.144;17.098;2023-03-30T09:51:12;8.02;;;7.22;;
17997;SDS011;9124;48.144;17.098;2023-03-30T09:55:53;8.07;;;7.40;;
17997;SDS011;9124;48.144;17.098;2023-03-30T10:03:06;8.40;;;7.70;;
17997;SDS011;9124;48.144;17.098;2023-03-30T10:06:53;8.50;;;7.15;;
17997;SDS011;9124;48.144;17.098;2023-03-30T10:10:38;11.48;;;8.13;;
17997;SDS011;9124;48.144;17.098;2023-03-30T10:14:27;8.32;;;7.35;;
17997;SDS011;9124;48.144;17.098;2023-03-30T10:22:04;14.40;;;7.90;;
17997;SDS011;9124;48.144;17.098;2023-03-30T10:25:53;8.48;;;7.75;;
17997;SDS011;9124;48.144;17.098;2023-03-30T10:29:37;9.88;;;8.40;;
17997;SDS011;9124;48.144;17.098;2023-03-30T10:33:25;9.25;;;8.25;;
17997;SDS011;9124;48.144;17.098;2023-03-30T10:37:08;9.45;;;8.25;;
17997;SDS011;9124;48.144;17.098;2023-03-30T10:40:48;8.50;;;7.70;;
17997;SDS011;9124;48.144;17.098;2023-03-30T10:44:31;11.93;;;8.80;;
17997;SDS011;9124;48.144;17.098;2023-03-30T10:48:15;9.40;;;8.50;;
17997;SDS011;9124;48.144;17.098;2023-03-30T11:03:45;9.48;;;8.75;;
17997;SDS011;9124;48.144;17.098;2023-03-30T11:07:45;9.63;;;8.15;;
17997;SDS011;9124;48.144;17.098;2023-03-30T11:11:39;10.75;;;8.77;;
17997;SDS011;9124;48.144;17.098;2023-03-30T11:15:38;11.85;;;9.27;;
17997;SDS011;9124;48.144;17.098;2023-03-30T11:19:21;10.70;;;9.30;;
17997;SDS011;9124;48.144;17.098;2023-03-30T11:23:12;15.45;;;10.20;;
17997;SDS011;9124;48.144;17.098;2023-03-30T11:26:58;11.63;;;9.48;;
17997;SDS011;9124;48.144;17.098;2023-03-30T11:30:44;12.10;;;9.90;;
17997;SDS011;9124;48.144;17.098;2023-03-30T11:42:23;10.52;;;9.00;;
17997;SDS011;9124;48.144;17.098;2023-03-30T11:46:21;13.90;;;9.90;;
17997;SDS011;9124;48.144;17.098;2023-03-30T11:57:35;12.02;;;10.70;;
17997;SDS011;9124;48.144;17.098;2023-03-30T12:05:35;12.98;;;9.48;;
17997;SDS011;9124;48.144;17.098;2023-03-30T12:12:56;12.45;;;10.30;;
17997;SDS011;9124;48.144;17.098;2023-03-30T12:16:39;16.75;;;10.23;;
17997;SDS011;9124;48.144;17.098;2023-03-30T12:20:40;10.88;;;9.90;;
17997;SDS011;9124;48.144;17.098;2023-03-30T12:28:08;11.00;;;10.00;;
17997;SDS011;9124;48.144;17.098;2023-03-30T12:39:25;12.75;;;9.90;;
17997;SDS011;9124;48.144;17.098;2023-03-30T12:51:27;11.07;;;10.00;;
17997;SDS011;9124;48.144;17.098;2023-03-30T12:59:16;13.70;;;10.20;;
17997;SDS011;9124;48.144;17.098;2023-03-30T13:03:13;11.70;;;10.60;;
17997;SDS011;9124;48.144;17.098;2023-03-30T13:07:07;12.85;;;9.75;;
17997;SDS011;9124;48.144;17.098;2023-03-30T13:11:04;14.18;;;10.40;;
17997;SDS011;9124;48.144;17.098;2023-03-30T13:18:25;12.85;;;11.15;;
17997;SDS011;9124;48.144;17.098;2023-03-30T13:25:51;12.25;;;9.68;;
17997;SDS011;9124;48.144;17.098;2023-03-30T13:33:45;21.02;;;10.48;;
17997;SDS011;9124;48.144;17.098;2023-03-30T13:49:35;13.93;;;9.38;;
17997;SDS011;9124;48.144;17.098;2023-03-30T13:54:02;10.85;;;9.70;;
17997;SDS011;9124;48.144;17.098;2023-03-30T13:57:42;12.82;;;9.85;;
17997;SDS011;9124;48.144;17.098;2023-03-30T14:01:20;13.88;;;8.70;;
17997;SDS011;9124;48.144;17.098;2023-03-30T14:05:11;15.98;;;8.98;;
17997;SDS011;9124;48.144;17.098;2023-03-30T14:12:41;9.70;;;8.07;;
17997;SDS011;9124;48.144;17.098;2023-03-30T14:16:26;12.90;;;7.95;;
17997;SDS011;9124;48.144;17.098;2023-03-30T14:23:46;13.82;;;7.57;;
17997;SDS011;9124;48.144;17.098;2023-03-30T14:27:30;7.45;;;6.72;;
17997;SDS011;9124;48.144;17.098;2023-03-30T14:31:11;7.38;;;6.82;;
17997;SDS011;9124;48.144;17.098;2023-03-30T14:34:53;7.57;;;6.97;;
17997;SDS011;9124;48.144;17.098;2023-03-30T14:38:30;11.45;;;6.95;;
17997;SDS011;9124;48.144;17.098;2023-03-30T14:45:54;10.50;;;9.23;;
17997;SDS011;9124;48.144;17.098;2023-03-30T14:49:34;13.15;;;11.07;;
17997;SDS011;9124;48.144;17.098;2023-03-30T14:53:12;16.92;;;12.57;;
17997;SDS011;9124;48.144;17.098;2023-03-30T14:56:54;15.70;;;12.68;;
17997;SDS011;9124;48.144;17.098;2023-03-30T15:00:33;15.32;;;13.75;;
17997;SDS011;9124;48.144;17.098;2023-03-30T15:04:15;15.40;;;13.85;;
17997;SDS011;9124;48.144;17.098;2023-03-30T15:07:53;13.88;;;12.73;;
17997;SDS011;9124;48.144;17.098;2023-03-30T15:11:30;13.65;;;12.32;;
17997;SDS011;9124;48.144;17.098;2023-03-30T15:15:10;16.58;;;12.50;;
17997;SDS011;9124;48.144;17.098;2023-03-30T15:18:51;19.40;;;14.00;;
17997;SDS011;9124;48.144;17.098;2023-03-30T15:22:44;16.80;;;14.27;;
17997;SDS011;9124;48.144;17.098;2023-03-30T15:26:24;15.77;;;13.95;;
17997;SDS011;9124;48.144;17.098;2023-03-30T15:30:03;16.35;;;14.85;;
17997;SDS011;9124;48.144;17.098;2023-03-30T15:33:51;16.52;;;13.73;;
17997;SDS011;9124;48.144;17.098;2023-03-30T15:37:33;18.17;;;13.82;;
17997;SDS011;9124;48.144;17.098;2023-03-30T15:41:12;14.35;;;13.15;;
17997;SDS011;9124;48.144;17.098;2023-03-30T15:48:58;14.63;;;12.60;;
17997;SDS011;9124;48.144;17.098;2023-03-30T15:52:36;19.20;;;14.82;;
17997;SDS011;9124;48.144;17.098;2023-03-30T15:56:21;17.85;;;13.73;;
17997;SDS011;9124;48.144;17.098;2023-03-30T16:00:05;19.52;;;14.75;;
17997;SDS011;9124;48.144;17.098;2023-03-30T16:03:52;17.30;;;15.40;;
17997;SDS011;9124;48.144;17.098;2023-03-30T16:07:30;24.50;;;16.25;;
17997;SDS011;9124;48.144;17.098;2023-03-30T16:11:08;23.85;;;18.33;;
17997;SDS011;9124;48.144;17.098;2023-03-30T16:14:45;23.20;;;16.60;;
17997;SDS011;9124;48.144;17.098;2023-03-30T16:18:22;28.85;;;17.38;;
17997;SDS011;9124;48.144;17.098;2023-03-30T16:21:58;19.00;;;15.90;;
17997;SDS011;9124;48.144;17.098;2023-03-30T16:25:35;22.20;;;17.52;;
17997;SDS011;9124;48.144;17.098;2023-03-30T16:29:21;18.17;;;16.17;;
17997;SDS011;9124;48.144;17.098;2023-03-30T16:32:59;26.73;;;16.17;;
17997;SDS011;9124;48.144;17.098;2023-03-30T16:36:36;23.15;;;17.30;;
17997;SDS011;9124;48.144;17.098;2023-03-30T16:40:16;22.55;;;17.25;;
17997;SDS011;9124;48.144;17.098;2023-03-30T16:43:59;23.23;;;17.70;;
17997;SDS011;9124;48.144;17.098;2023-03-30T16:47:36;23.33;;;16.50;;
17997;SDS011;9124;48.144;17.098;2023-03-30T16:51:13;22.98;;;17.90;;
17997;SDS011;9124;48.144;17.098;2023-03-30T16:54:50;25.77;;;17.85;;
17997;SDS011;9124;48.144;17.098;2023-03-30T16:58:26;21.73;;;16.45;;
17997;SDS011;9124;48.144;17.098;2023-03-30T17:02:03;21.88;;;17.90;;
17997;SDS011;9124;48.144;17.098;2023-03-30T17:05:39;18.52;;;16.58;;
17997;SDS011;9124;48.144;17.098;2023-03-30T17:09:17;21.98;;;17.27;;
17997;SDS011;9124;48.144;17.098;2023-03-30T17:12:54;26.48;;;18.58;;
17997;SDS011;9124;48.144;17.098;2023-03-30T17:16:30;25.80;;;18.85;;
17997;SDS011;9124;48.144;17.098;2023-03-30T17:23:51;20.85;;;18.70;;
17997;SDS011;9124;48.144;17.098;2023-03-30T17:27:27;21.40;;;18.50;;
17997;SDS011;9124;48.144;17.098;2023-03-30T17:31:14;23.80;;;19.20;;
17997;SDS011;9124;48.144;17.098;2023-03-30T17:34:53;23.45;;;18.45;;
17997;SDS011;9124;48.144;17.098;2023-03-30T17:38:29;29.48;;;18.23;;
17997;SDS011;9124;48.144;17.098;2023-03-30T17:42:06;24.38;;;18.65;;
17997;SDS011;9124;48.144;17.098;2023-03-30T17:45:42;25.00;;;17.73;;
17997;SDS011;9124;48.144;17.098;2023-03-30T17:49:19;26.23;;;17.77;;
17997;SDS011;9124;48.144;17.098;2023-03-30T17:52:56;29.52;;;19.85;;
17997;SDS011;9124;48.144;17.098;2023-03-30T17:56:33;27.17;;;19.00;;
17997;SDS011;9124;48.144;17.098;2023-03-30T18:00:20;24.63;;;18.30;;
17997;SDS011;9124;48.144;17.098;2023-03-30T18:04:02;24.70;;;18.85;;
17997;SDS011;9124;48.144;17.098;2023-03-30T18:07:38;20.42;;;18.27;;
17997;SDS011;9124;48.144;17.098;2023-03-30T18:11:15;23.30;;;17.75;;
17997;SDS011;9124;48.144;17.098;2023-03-30T18:14:51;26.60;;;19.17;;
17997;SDS011;9124;48.144;17.098;2023-03-30T18:18:29;24.15;;;18.00;;
17997;SDS011;9124;48.144;17.098;2023-03-30T18:22:15;27.83;;;18.05;;
17997;SDS011;9124;48.144;17.098;2023-03-30T18:25:52;25.75;;;18.45;;
17997;SDS011;9124;48.144;17.098;2023-03-30T18:29:28;26.88;;;19.00;;
17997;SDS011;9124;48.144;17.098;2023-03-30T18:33:06;23.52;;;18.98;;
17997;SDS011;9124;48.144;17.098;2023-03-30T18:36:42;30.55;;;21.02;;
17997;SDS011;9124;48.144;17.098;2023-03-30T18:40:20;24.65;;;18.85;;
17997;SDS011;9124;48.144;17.098;2023-03-30T18:44:08;31.60;;;21.10;;
17997;SDS011;9124;48.144;17.098;2023-03-30T18:47:45;27.15;;;18.48;;
17997;SDS011;9124;48.144;17.098;2023-03-30T18:51:22;23.42;;;19.67;;
17997;SDS011;9124;48.144;17.098;2023-03-30T18:54:59;29.05;;;21.40;;
17997;SDS011;9124;48.144;17.098;2023-03-30T18:58:35;37.10;;;25.23;;
17997;SDS011;9124;48.144;17.098;2023-03-30T19:02:16;35.42;;;26.67;;
17997;SDS011;9124;48.144;17.098;2023-03-30T19:05:53;39.17;;;26.63;;
17997;SDS011;9124;48.144;17.098;2023-03-30T19:09:30;41.40;;;26.80;;
17997;SDS011;9124;48.144;17.098;2023-03-30T19:13:06;37.03;;;27.50;;
17997;SDS011;9124;48.144;17.098;2023-03-30T19:16:45;42.72;;;28.20;;
17997;SDS011;9124;48.144;17.098;2023-03-30T19:20:23;42.47;;;28.10;;
17997;SDS011;9124;48.144;17.098;2023-03-30T19:24:01;36.88;;;27.15;;
17997;SDS011;9124;48.144;17.098;2023-03-30T19:27:38;45.08;;;26.83;;
17997;SDS011;9124;48.144;17.098;2023-03-30T19:31:16;46.97;;;28.88;;
17997;SDS011;9124;48.144;17.098;2023-03-30T19:34:52;43.35;;;29.88;;
17997;SDS011;9124;48.144;17.098;2023-03-30T19:38:31;46.33;;;31.92;;
17997;SDS011;9124;48.144;17.098;2023-03-30T19:42:07;41.78;;;29.50;;
17997;SDS011;9124;48.144;17.098;2023-03-30T19:45:43;38.05;;;28.13;;
17997;SDS011;9124;48.144;17.098;2023-03-30T19:49:25;38.85;;;27.20;;
17997;SDS011;9124;48.144;17.098;2023-03-30T19:53:02;33.17;;;26.48;;
17997;SDS011;9124;48.144;17.098;2023-03-30T19:56:38;34.30;;;25.85;;
17997;SDS011;9124;48.144;17.098;2023-03-30T20:00:15;34.03;;;24.90;;
17997;SDS011;9124;48.144;17.098;2023-03-30T20:03:54;37.33;;;25.88;;
17997;SDS011;9124;48.144;17.098;2023-03-30T20:07:30;37.40;;;25.40;;
17997;SDS011;9124;48.144;17.098;2023-03-30T20:11:07;33.42;;;24.52;;
17997;SDS011;9124;48.144;17.098;2023-03-30T20:14:45;33.05;;;25.17;;
17997;SDS011;9124;48.144;17.098;2023-03-30T20:18:21;37.75;;;26.48;;
17997;SDS011;9124;48.144;17.098;2023-03-30T20:21:57;37.22;;;25.77;;
17997;SDS011;9124;48.144;17.098;2023-03-30T20:25:34;36.83;;;27.00;;
17997;SDS011;9124;48.144;17.098;2023-03-30T20:29:10;39.67;;;27.25;;
17997;SDS011;9124;48.144;17.098;2023-03-30T20:32:47;46.10;;;28.98;;
17997;SDS011;9124;48.144;17.098;2023-03-30T20:36:28;47.65;;;30.23;;
17997;SDS011;9124;48.144;17.098;2023-03-30T20:40:05;42.72;;;29.58;;
17997;SDS011;9124;48.144;17.098;2023-03-30T20:43:44;53.63;;;33.08;;
17997;SDS011;9124;48.144;17.098;2023-03-30T20:47:21;45.70;;;31.13;;
17997;SDS011;9124;48.144;17.098;2023-03-30T20:50:58;47.63;;;29.85;;
17997;SDS011;9124;48.144;17.098;2023-03-30T20:54:39;37.78;;;29.17;;
17997;SDS011;9124;48.144;17.098;2023-03-30T20:58:16;43.83;;;30.88;;
17997;SDS011;9124;48.144;17.098;2023-03-30T21:01:53;42.60;;;31.77;;
17997;SDS011;9124;48.144;17.098;2023-03-30T21:05:30;47.65;;;32.35;;
17997;SDS011;9124;48.144;17.098;2023-03-30T21:09:07;40.85;;;31.55;;
17997;SDS011;9124;48.144;17.098;2023-03-30T21:12:44;53.13;;;33.15;;
17997;SDS011;9124;48.144;17.098;2023-03-30T21:16:24;56.78;;;35.63;;
17997;SDS011;9124;48.144;17.098;2023-03-30T21:20:00;54.85;;;31.63;;
17997;SDS011;9124;48.144;17.098;2023-03-30T21:23:39;46.25;;;29.10;;
17997;SDS011;9124;48.144;17.098;2023-03-30T21:27:15;47.72;;;29.27;;
17997;SDS011;9124;48.144;17.098;2023-03-30T21:30:52;39.45;;;27.67;;
17997;SDS011;9124;48.144;17.098;2023-03-30T21:34:30;30.42;;;24.08;;
17997;SDS011;9124;48.144;17.098;2023-03-30T21:38:06;37.47;;;24.88;;
17997;SDS011;9124;48.144;17.098;2023-03-30T21:41:43;33.10;;;25.08;;
17997;SDS011;9124;48.144;17.098;2023-03-30T21:45:20;31.70;;;26.23;;
17997;SDS011;9124;48.144;17.098;2023-03-30T21:48:56;35.97;;;25.10;;
17997;SDS011;9124;48.144;17.098;2023-03-30T21:52:32;35.40;;;25.40;;
17997;SDS011;9124;48.144;17.098;2023-03-30T21:56:10;29.30;;;24.05;;
17997;SDS011;9124;48.144;17.098;2023-03-30T21:59:47;30.60;;;22.98;;
17997;SDS011;9124;48.144;17.098;2023-03-30T22:03:23;28.23;;;23.65;;
17997;SDS011;9124;48.144;17.098;2023-03-30T22:06:59;29.15;;;23.83;;
17997;SDS011;9124;48.144;17.098;2023-03-30T22:10:36;36.15;;;22.92;;
17997;SDS011;9124;48.144;17.098;2023-03-30T22:14:13;34.92;;;23.83;;
17997;SDS011;9124;48.144;17.098;2023-03-30T22:17:50;29.90;;;22.77;;
17997;SDS011;9124;48.144;17.098;2023-03-30T22:21:27;29.25;;;22.55;;
17997;SDS011;9124;48.144;17.098;2023-03-30T22:25:09;25.65;;;20.02;;
17997;SDS011;9124;48.144;17.098;2023-03-30T22:28:45;26.38;;;21.70;;
17997;SDS011;9124;48.144;17.098;2023-03-30T22:32:22;30.42;;;22.20;;
17997;SDS011;9124;48.144;17.098;2023-03-30T22:35:58;23.20;;;20.60;;
17997;SDS011;9124;48.144;17.098;2023-03-30T22:39:37;23.67;;;20.23;;
17997;SDS011;9124;48.144;17.098;2023-03-30T22:43:14;17.70;;;15.90;;
17997;SDS011;9124;48.144;17.098;2023-03-30T22:46:50;19.55;;;16.17;;
17997;SDS011;9124;48.144;17.098;2023-03-30T22:50:28;14.40;;;13.10;;
17997;SDS011;9124;48.144;17.098;2023-03-30T22:54:04;7.95;;;4.63;;
17997;SDS011;9124;48.144;17.098;2023-03-30T22:57:41;3.47;;;2.75;;
17997;SDS011;9124;48.144;17.098;2023-03-30T23:01:17;3.22;;;2.10;;
17997;SDS011;9124;48.144;17.098;2023-03-30T23:04:53;2.42;;;2.22;;
17997;SDS011;9124;48.144;17.098;2023-03-30T23:08:30;1.90;;;1.77;;
17997;SDS011;9124;48.144;17.098;2023-03-30T23:12:06;1.85;;;1.75;;
17997;SDS011;9124;48.144;17.098;2023-03-30T23:15:43;1.75;;;1.60;;
17997;SDS011;9124;48.144;17.098;2023-03-30T23:19:23;1.58;;;1.48;;
17997;SDS011;9124;48.144;17.098;2023-03-30T23:23:00;1.67;;;1.15;;
17997;SDS011;9124;48.144;17.098;2023-03-30T23:26:36;2.17;;;1.58;;
17997;SDS011;9124;48.144;17.098;2023-03-30T23:30:13;1.25;;;1.05;;
17997;SDS011;9124;48.144;17.098;2023-03-30T23:33:50;6.30;;;1.15;;
17997;SDS011;9124;48.144;17.098;2023-03-30T23:37:27;1.40;;;1.30;;
17997;SDS011;9124;48.144;17.098;2023-03-30T23:41:05;1.20;;;1.10;;
17997;SDS011;9124;48.144;17.098;2023-03-30T23:44:41;1.55;;;1.30;;
17997;SDS011;9124;48.144;17.098;2023-03-30T23:48:18;2.15;;;1.17;;
17997;SDS011;9124;48.144;17.098;2023-03-30T23:51:54;2.22;;;2.03;;
17997;SDS011;9124;48.144;17.098;2023-03-30T23:55:31;2.50;;;2.13;;
17997;SDS011;9124;48.144;17.098;2023-03-30T23:59:08;2.35;;;2.15;;
